首页
METAR-TAF:

METAR-TAF

机场 :

熊本機場

熊本, 日本

纬度: 32-50N, 经度: 130-51E, 海拔: 193米

当前天气观测

该预报发布于29分钟前的01:12 UTC
风速5节,风向,在南转南东西南之间变化
温度 23°C
湿度 100%
气压 1011 hPa
能見度: 0800
少量云层高于100英尺
多云层高于200英尺
多云层高于400英尺
小阵雨, 雾

METAR: RJFT 200112Z 19005KT 150V220 0800 R07/P1800N -SHRA FG FEW001 BKN002 BKN004 23/23 Q1011 RMK 2ST001 5ST002 6ST004 A2987

时间: 10:41 (01:41 UTC)

预报

该预报发布于19分钟前的01:22 UTC
预报有效从20日的 01点(UTC)到 21日的 06点(UTC)
风速10节,风向南转西南
能見度: 6000
少量云层高于300英尺
散云层高于800英尺
多云层高于1500英尺
小阵雨
短暂存在
从 20日的 01点(UTC)到 20日的 06点(UTC)
能見度: 0700
少量云层高于100英尺
多云层高于200英尺
多云层高于500英尺
少量云层高于2500英尺, 积雨云.
雷暴, 雨, 雾
短暂存在
从 20日的 06点(UTC)到 20日的 15点(UTC)
能見度: 1500
少量云层高于200英尺
多云层高于500英尺
多云层高于800英尺
小阵雨, 轻雾
短暂存在
从 20日的 15点(UTC)到 21日的 00点(UTC)
能見度: 0700
少量云层高于100英尺
多云层高于200英尺
多云层高于500英尺
小阵雨, 雾
短暂存在
从 21日的 00点(UTC)到 21日的 06点(UTC)
能見度: 1500
少量云层高于200英尺
多云层高于500英尺
多云层高于800英尺
小阵雨, 轻雾

TAF: RJFT 200122Z 2001/2106 21010KT 6000 -SHRA FEW003 SCT008 BKN015 TEMPO 2001/2006 0700 TSRA FG FEW001 BKN002 BKN005 FEW025CB TEMPO 2006/2015 1500 -SHRA BR FEW002 BKN005 BKN008 TEMPO 2015/2100 0700 -SHRA FG FEW001 BKN002 BKN005 TEMPO 2100/2106 1500 -SHRA BR FEW002 BKN005 BKN008

超过4000个机场的气象观测和天气预报(METAR&TAF报告)。

可查询的气象台以黄色和红色小点在地图上表示。

将鼠标移到小点上方,可查看气象台名称。

然后点击查看天气观测和预报。

如需切换地图:点击带黑十字的绿色按钮放大地图;点击带横线的绿色按钮缩小地图;或者点击绿色箭头查看邻近地区的地图。


METAR-TAF: